createdAt,value
2022-10-17T00:02:11.954Z,14.86
2022-10-17T00:07:13.753Z,14.86
2022-10-17T00:12:13.503Z,14.88
2022-10-17T00:17:14.160Z,14.89
2022-10-17T00:22:14.881Z,14.91
2022-10-17T00:27:15.684Z,14.81
2022-10-17T00:32:23.493Z,14.78
2022-10-17T00:37:17.182Z,14.77
2022-10-17T00:42:17.915Z,14.69
2022-10-17T00:47:18.706Z,14.64
2022-10-17T00:52:19.462Z,14.65
2022-10-17T00:57:20.163Z,14.73
2022-10-17T01:02:20.903Z,14.81
2022-10-17T01:07:21.631Z,14.83
2022-10-17T01:12:22.320Z,14.78
2022-10-17T01:17:23.155Z,14.65
2022-10-17T01:22:23.865Z,14.61
2022-10-17T01:27:24.552Z,14.52
2022-10-17T01:32:25.644Z,14.45
2022-10-17T01:37:26.055Z,14.39
2022-10-17T01:42:27.058Z,14.42
2022-10-17T01:47:27.793Z,14.46
2022-10-17T01:52:28.154Z,14.47
2022-10-17T01:57:29.336Z,14.51
2022-10-17T02:02:29.646Z,14.51
2022-10-17T02:07:30.739Z,14.47
2022-10-17T02:12:31.104Z,14.40
2022-10-17T02:17:31.863Z,14.39
2022-10-17T02:22:32.665Z,14.39
2022-10-17T02:27:33.409Z,14.37
2022-10-17T02:32:34.148Z,14.36
2022-10-17T02:37:34.937Z,14.42
2022-10-17T02:42:35.664Z,14.47
2022-10-17T02:47:36.349Z,14.55
2022-10-17T02:52:37.244Z,14.57
2022-10-17T02:57:38.115Z,14.57
2022-10-17T03:02:39.025Z,14.58
2022-10-17T03:07:39.891Z,14.57
2022-10-17T03:12:40.719Z,14.54
2022-10-17T03:17:41.527Z,14.51
2022-10-17T03:22:42.337Z,14.52
2022-10-17T03:27:43.086Z,14.52
2022-10-17T03:32:43.751Z,14.52
2022-10-17T03:37:44.563Z,14.54
2022-10-17T03:42:45.299Z,14.54
2022-10-17T03:47:46.092Z,14.52
2022-10-17T03:52:46.853Z,14.52
2022-10-17T03:57:47.582Z,14.46
2022-10-17T04:02:48.265Z,14.45
2022-10-17T04:07:48.984Z,14.42
2022-10-17T04:12:49.692Z,14.36
2022-10-17T04:17:50.419Z,14.33
2022-10-17T04:22:51.108Z,14.32
2022-10-17T04:27:51.824Z,14.33
2022-10-17T04:32:52.527Z,14.33
2022-10-17T04:37:53.241Z,14.36
2022-10-17T04:42:53.937Z,14.36
2022-10-17T04:47:54.672Z,14.33
2022-10-17T04:52:55.522Z,14.29
2022-10-17T04:57:56.285Z,14.27
2022-10-17T05:02:57.059Z,14.22
2022-10-17T05:07:57.908Z,14.22
2022-10-17T05:12:58.726Z,14.20
2022-10-17T05:17:59.487Z,14.24
2022-10-17T05:23:00.247Z,14.25
2022-10-17T05:28:01.050Z,14.24
2022-10-17T05:33:01.871Z,14.24
2022-10-17T05:38:02.690Z,14.18
2022-10-17T05:43:03.332Z,14.17
2022-10-17T05:48:04.208Z,14.15
2022-10-17T05:53:05.066Z,14.15
2022-10-17T05:58:05.813Z,14.10
2022-10-17T06:03:06.589Z,14.20
2022-10-17T06:08:07.356Z,14.25
2022-10-17T06:13:08.181Z,14.33
2022-10-17T06:18:08.961Z,14.40
2022-10-17T06:23:09.610Z,14.50
2022-10-17T06:28:10.410Z,14.57
2022-10-17T06:33:11.382Z,14.62
2022-10-17T06:38:11.624Z,14.68
2022-10-17T06:43:12.390Z,14.70
2022-10-17T06:48:13.221Z,14.77
2022-10-17T06:53:14.019Z,14.84
2022-10-17T06:58:15.743Z,14.98
2022-10-17T07:03:15.496Z,15.17
2022-10-17T07:08:16.268Z,15.36
2022-10-17T07:13:17.043Z,15.53
2022-10-17T07:18:17.687Z,15.72
2022-10-17T07:23:18.508Z,15.84
2022-10-17T07:28:19.275Z,15.90
2022-10-17T07:33:20.110Z,16.01
2022-10-17T07:38:20.823Z,16.17
2022-10-17T07:43:21.738Z,16.31
2022-10-17T07:48:22.464Z,16.53
2022-10-17T07:53:23.135Z,16.68
2022-10-17T07:58:23.823Z,16.75
2022-10-17T08:03:24.461Z,16.85
2022-10-17T08:08:25.143Z,17.00
2022-10-17T08:13:25.879Z,17.16
2022-10-17T08:18:26.525Z,17.26
2022-10-17T08:23:27.292Z,17.49
2022-10-17T08:28:28.146Z,17.66
2022-10-17T08:33:28.852Z,17.74
2022-10-17T08:38:33.238Z,17.79
2022-10-17T08:43:35.206Z,17.97
2022-10-17T08:48:30.645Z,18.18
2022-10-17T08:53:31.424Z,18.32
2022-10-17T08:58:32.211Z,18.50
2022-10-17T09:03:32.983Z,18.67
2022-10-17T09:08:33.628Z,18.82
2022-10-17T09:13:34.454Z,18.99
2022-10-17T09:18:35.263Z,19.16
2022-10-17T09:23:37.971Z,19.37
2022-10-17T09:28:36.634Z,19.50
2022-10-17T09:33:53.462Z,19.69
2022-10-17T09:38:38.892Z,19.83
2022-10-17T09:43:38.542Z,19.98
2022-10-17T09:48:39.240Z,20.16
2022-10-17T09:53:39.917Z,20.36
2022-10-17T09:58:40.440Z,20.42
2022-10-17T10:03:41.102Z,20.58
2022-10-17T10:08:41.796Z,20.72
2022-10-17T10:13:42.474Z,20.97
2022-10-17T10:18:43.884Z,21.10
2022-10-17T10:23:44.065Z,21.17
2022-10-17T10:28:44.745Z,21.25
2022-10-17T10:33:49.469Z,21.32
2022-10-17T10:38:46.905Z,21.47
2022-10-17T10:43:46.545Z,21.67
2022-10-17T10:48:47.195Z,21.83
2022-10-17T10:53:47.944Z,21.88
2022-10-17T10:58:48.605Z,21.96
2022-10-17T11:03:49.232Z,22.09
2022-10-17T11:08:49.910Z,22.27
2022-10-17T11:13:53.290Z,22.37
2022-10-17T11:18:51.261Z,22.45
2022-10-17T11:23:51.946Z,22.52
2022-10-17T11:28:52.640Z,22.72
2022-10-17T11:33:53.307Z,22.79
2022-10-17T11:38:53.995Z,22.83
2022-10-17T11:43:54.632Z,22.94
2022-10-17T11:48:55.298Z,22.98
2022-10-17T11:53:55.946Z,23.02
2022-10-17T11:58:56.602Z,23.01
2022-10-17T12:03:57.293Z,23.15
2022-10-17T12:08:57.979Z,23.36
2022-10-17T12:14:00.076Z,23.43
2022-10-17T12:18:59.208Z,23.54
2022-10-17T12:23:59.868Z,23.69
2022-10-17T12:29:00.582Z,23.70
2022-10-17T12:34:09.296Z,23.65
2022-10-17T12:39:01.956Z,23.75
2022-10-17T12:44:02.639Z,23.72
2022-10-17T12:49:03.262Z,23.76
2022-10-17T12:54:03.944Z,23.79
2022-10-17T12:59:04.617Z,23.80
2022-10-17T13:04:05.449Z,23.83
2022-10-17T13:09:06.073Z,23.66
2022-10-17T13:14:06.737Z,23.63
2022-10-17T13:19:07.395Z,23.60
2022-10-17T13:24:08.081Z,23.63
2022-10-17T13:34:09.341Z,23.65
2022-10-17T13:39:12.207Z,23.69
2022-10-17T13:44:10.938Z,23.70
2022-10-17T13:49:11.606Z,23.75
2022-10-17T13:54:12.236Z,23.75
2022-10-17T13:59:12.937Z,23.61
2022-10-17T14:04:19.831Z,23.50
2022-10-17T14:09:15.340Z,23.40
2022-10-17T14:14:15.073Z,23.32
2022-10-17T14:19:15.751Z,23.33
2022-10-17T14:24:16.419Z,23.38
2022-10-17T14:29:17.094Z,23.38
2022-10-17T14:34:17.764Z,23.31
2022-10-17T14:39:18.441Z,23.20
2022-10-17T14:44:19.130Z,23.19
2022-10-17T14:49:24.238Z,23.04
2022-10-17T14:54:20.611Z,22.90
2022-10-17T14:59:35.433Z,22.73
2022-10-17T15:04:22.818Z,22.58
2022-10-17T15:09:22.515Z,22.43
2022-10-17T15:14:23.115Z,22.37
2022-10-17T15:19:23.786Z,22.40
2022-10-17T15:24:24.499Z,22.43
2022-10-17T15:29:25.206Z,22.35
2022-10-17T15:34:25.849Z,22.30
2022-10-17T15:39:26.518Z,22.18
2022-10-17T15:44:27.165Z,22.06
2022-10-17T15:49:27.913Z,21.99
2022-10-17T15:54:28.554Z,21.94
2022-10-17T15:59:29.261Z,21.80
2022-10-17T16:04:29.878Z,21.67
2022-10-17T16:09:30.616Z,21.50
2022-10-17T16:14:31.290Z,21.37
2022-10-17T16:19:31.938Z,21.29
2022-10-17T16:24:32.632Z,21.28
2022-10-17T16:29:33.294Z,21.17
2022-10-17T16:34:34.005Z,21.09
2022-10-17T16:39:34.700Z,20.99
2022-10-17T16:44:35.496Z,20.92
2022-10-17T16:49:39.200Z,20.94
2022-10-17T16:54:37.825Z,20.94
2022-10-17T16:59:37.586Z,20.94
2022-10-17T17:04:38.276Z,20.91
2022-10-17T17:09:39.030Z,20.80
2022-10-17T17:14:39.777Z,20.69
2022-10-17T17:19:40.448Z,20.58
2022-10-17T17:24:41.232Z,20.57
2022-10-17T17:29:41.914Z,20.58
2022-10-17T17:34:42.644Z,20.50
2022-10-17T17:39:43.445Z,20.32
2022-10-17T17:44:44.438Z,20.23
2022-10-17T17:49:44.718Z,20.14
2022-10-17T17:54:45.749Z,20.02
2022-10-17T17:59:45.982Z,19.99
2022-10-17T18:04:46.706Z,19.91
2022-10-17T18:09:47.783Z,19.86
2022-10-17T18:14:48.315Z,19.87
2022-10-17T18:19:48.553Z,19.87
2022-10-17T18:24:49.480Z,19.83
2022-10-17T18:29:50.741Z,19.73
2022-10-17T18:34:52.170Z,19.74
2022-10-17T18:39:51.900Z,19.76
2022-10-17T18:44:52.835Z,19.71
2022-10-17T18:49:53.603Z,19.59
2022-10-17T18:54:54.338Z,19.47
2022-10-17T18:59:55.057Z,19.39
2022-10-17T19:04:55.800Z,19.36
2022-10-17T19:09:56.500Z,19.29
2022-10-17T19:15:04.286Z,19.21
2022-10-17T19:19:57.956Z,19.19
2022-10-17T19:24:58.696Z,19.19
2022-10-17T19:29:59.507Z,19.11
2022-10-17T19:35:00.176Z,19.02
2022-10-17T19:40:00.857Z,18.90
2022-10-17T19:45:01.580Z,18.81
2022-10-17T19:55:02.920Z,18.78
2022-10-17T20:00:03.652Z,18.76
2022-10-17T20:05:18.033Z,18.72
2022-10-17T20:10:06.024Z,18.67
2022-10-17T20:15:05.740Z,18.63
2022-10-17T20:20:08.689Z,18.58
2022-10-17T20:25:07.219Z,18.51
2022-10-17T20:30:07.955Z,18.48
2022-10-17T20:35:08.696Z,18.45
2022-10-17T20:40:35.017Z,18.41
2022-10-17T20:45:10.991Z,18.36
2022-10-17T20:50:10.717Z,18.30
2022-10-17T20:55:11.429Z,18.26
2022-10-17T21:00:12.132Z,18.18
2022-10-17T21:05:12.845Z,18.11
2022-10-17T21:10:34.276Z,18.07
2022-10-17T21:15:15.162Z,18.02
2022-10-17T21:20:14.871Z,17.96
2022-10-17T21:25:15.569Z,17.92
2022-10-17T21:30:16.295Z,17.87
2022-10-17T21:35:17.010Z,17.84
2022-10-17T21:40:17.703Z,17.89
2022-10-17T21:45:25.280Z,17.84
2022-10-17T21:50:20.053Z,17.79
2022-10-17T21:55:19.748Z,17.79
2022-10-17T22:00:20.470Z,17.78
2022-10-17T22:05:21.207Z,17.74
2022-10-17T22:10:21.914Z,17.75
2022-10-17T22:15:22.650Z,17.75
2022-10-17T22:20:23.382Z,17.82
2022-10-17T22:25:24.102Z,17.86
2022-10-17T22:30:24.840Z,17.86
2022-10-17T22:35:25.547Z,17.89
2022-10-17T22:40:26.281Z,17.93
2022-10-17T22:45:26.999Z,17.95
2022-10-17T22:50:27.722Z,17.96
2022-10-17T22:55:28.464Z,17.95
2022-10-17T23:05:29.824Z,17.89
2022-10-17T23:10:30.551Z,17.89
2022-10-17T23:15:31.275Z,17.89
2022-10-17T23:20:32.005Z,17.86
2022-10-17T23:25:32.733Z,17.84
2022-10-17T23:30:33.477Z,17.81
2022-10-17T23:35:34.180Z,17.81
2022-10-17T23:40:34.929Z,17.81
2022-10-17T23:45:37.198Z,17.79
2022-10-17T23:50:36.518Z,17.81
2022-10-17T23:55:37.253Z,17.84
